sensor_id;sensor_type;location;lat;lon;timestamp;P1;durP1;ratioP1;P2;durP2;ratioP2
29688;SDS011;16600;47.444;8.334;2023-03-23T00:01:56;5.90;;;3.50;;
29688;SDS011;16600;47.444;8.334;2023-03-23T00:06:48;3.83;;;2.65;;
29688;SDS011;16600;47.444;8.334;2023-03-23T00:09:14;5.20;;;3.42;;
29688;SDS011;16600;47.444;8.334;2023-03-23T00:14:06;5.13;;;2.88;;
29688;SDS011;16600;47.444;8.334;2023-03-23T00:16:38;4.00;;;2.90;;
29688;SDS011;16600;47.444;8.334;2023-03-23T00:19:10;5.85;;;2.95;;
29688;SDS011;16600;47.444;8.334;2023-03-23T00:21:38;3.75;;;2.88;;
29688;SDS011;16600;47.444;8.334;2023-03-23T00:26:34;5.63;;;2.60;;
29688;SDS011;16600;47.444;8.334;2023-03-23T00:29:02;3.33;;;2.90;;
29688;SDS011;16600;47.444;8.334;2023-03-23T00:31:28;4.07;;;2.92;;
29688;SDS011;16600;47.444;8.334;2023-03-23T00:33:57;9.73;;;3.33;;
29688;SDS011;16600;47.444;8.334;2023-03-23T00:36:24;6.03;;;3.90;;
29688;SDS011;16600;47.444;8.334;2023-03-23T00:41:16;10.53;;;5.43;;
29688;SDS011;16600;47.444;8.334;2023-03-23T00:46:08;9.73;;;5.95;;
29688;SDS011;16600;47.444;8.334;2023-03-23T00:48:37;9.63;;;4.72;;
29688;SDS011;16600;47.444;8.334;2023-03-23T00:51:10;8.68;;;4.07;;
29688;SDS011;16600;47.444;8.334;2023-03-23T00:53:40;8.82;;;4.10;;
29688;SDS011;16600;47.444;8.334;2023-03-23T00:56:07;7.35;;;4.00;;
29688;SDS011;16600;47.444;8.334;2023-03-23T00:58:33;10.55;;;4.35;;
29688;SDS011;16600;47.444;8.334;2023-03-23T01:03:25;4.90;;;3.65;;
29688;SDS011;16600;47.444;8.334;2023-03-23T01:05:52;5.70;;;3.63;;
29688;SDS011;16600;47.444;8.334;2023-03-23T01:08:21;8.18;;;3.90;;
29688;SDS011;16600;47.444;8.334;2023-03-23T01:10:48;8.00;;;3.25;;
29688;SDS011;16600;47.444;8.334;2023-03-23T01:15:40;9.43;;;4.20;;
29688;SDS011;16600;47.444;8.334;2023-03-23T01:18:07;6.63;;;3.30;;
29688;SDS011;16600;47.444;8.334;2023-03-23T01:20:33;6.38;;;3.58;;
29688;SDS011;16600;47.444;8.334;2023-03-23T01:23:00;8.23;;;4.25;;
29688;SDS011;16600;47.444;8.334;2023-03-23T01:25:27;10.85;;;3.65;;
29688;SDS011;16600;47.444;8.334;2023-03-23T01:27:53;7.57;;;4.15;;
29688;SDS011;16600;47.444;8.334;2023-03-23T01:32:45;5.35;;;3.20;;
29688;SDS011;16600;47.444;8.334;2023-03-23T01:35:15;5.35;;;3.70;;
29688;SDS011;16600;47.444;8.334;2023-03-23T01:37:41;4.97;;;3.75;;
29688;SDS011;16600;47.444;8.334;2023-03-23T01:40:08;8.80;;;3.70;;
29688;SDS011;16600;47.444;8.334;2023-03-23T01:42:36;4.70;;;3.00;;
29688;SDS011;16600;47.444;8.334;2023-03-23T01:47:46;6.10;;;3.50;;
29688;SDS011;16600;47.444;8.334;2023-03-23T01:50:17;5.88;;;4.32;;
29688;SDS011;16600;47.444;8.334;2023-03-23T01:52:43;8.40;;;4.25;;
29688;SDS011;16600;47.444;8.334;2023-03-23T01:57:34;8.23;;;3.97;;
29688;SDS011;16600;47.444;8.334;2023-03-23T02:00:03;5.75;;;3.35;;
29688;SDS011;16600;47.444;8.334;2023-03-23T02:02:49;6.25;;;3.95;;
29688;SDS011;16600;47.444;8.334;2023-03-23T02:05:19;4.47;;;3.58;;
29688;SDS011;16600;47.444;8.334;2023-03-23T02:07:46;5.53;;;3.75;;
29688;SDS011;16600;47.444;8.334;2023-03-23T02:10:14;6.30;;;4.18;;
29688;SDS011;16600;47.444;8.334;2023-03-23T02:12:40;10.68;;;4.07;;
29688;SDS011;16600;47.444;8.334;2023-03-23T02:15:10;10.13;;;4.00;;
29688;SDS011;16600;47.444;8.334;2023-03-23T02:20:19;4.10;;;3.65;;
29688;SDS011;16600;47.444;8.334;2023-03-23T02:22:58;8.30;;;3.47;;
29688;SDS011;16600;47.444;8.334;2023-03-23T02:35:39;5.03;;;3.55;;
29688;SDS011;16600;47.444;8.334;2023-03-23T02:38:13;10.32;;;4.38;;
29688;SDS011;16600;47.444;8.334;2023-03-23T02:40:41;9.15;;;3.40;;
29688;SDS011;16600;47.444;8.334;2023-03-23T02:43:09;5.97;;;3.63;;
29688;SDS011;16600;47.444;8.334;2023-03-23T02:45:36;6.72;;;4.07;;
29688;SDS011;16600;47.444;8.334;2023-03-23T02:48:03;6.03;;;3.45;;
29688;SDS011;16600;47.444;8.334;2023-03-23T02:50:30;5.20;;;3.83;;
29688;SDS011;16600;47.444;8.334;2023-03-23T02:52:57;10.13;;;4.25;;
29688;SDS011;16600;47.444;8.334;2023-03-23T02:55:25;3.20;;;2.90;;
29688;SDS011;16600;47.444;8.334;2023-03-23T02:57:52;6.40;;;3.40;;
29688;SDS011;16600;47.444;8.334;2023-03-23T03:00:18;4.55;;;3.38;;
29688;SDS011;16600;47.444;8.334;2023-03-23T03:02:46;6.57;;;3.65;;
29688;SDS011;16600;47.444;8.334;2023-03-23T03:05:31;9.95;;;3.88;;
29688;SDS011;16600;47.444;8.334;2023-03-23T03:08:09;6.43;;;3.97;;
29688;SDS011;16600;47.444;8.334;2023-03-23T03:10:59;13.27;;;3.80;;
29688;SDS011;16600;47.444;8.334;2023-03-23T03:20:50;5.22;;;3.90;;
29688;SDS011;16600;47.444;8.334;2023-03-23T03:23:22;7.45;;;3.80;;
29688;SDS011;16600;47.444;8.334;2023-03-23T03:25:50;10.00;;;4.05;;
29688;SDS011;16600;47.444;8.334;2023-03-23T03:28:24;5.65;;;3.70;;
29688;SDS011;16600;47.444;8.334;2023-03-23T03:30:54;7.80;;;4.05;;
29688;SDS011;16600;47.444;8.334;2023-03-23T03:33:21;8.15;;;4.03;;
29688;SDS011;16600;47.444;8.334;2023-03-23T03:35:53;8.55;;;4.15;;
29688;SDS011;16600;47.444;8.334;2023-03-23T03:38:19;4.80;;;4.22;;
29688;SDS011;16600;47.444;8.334;2023-03-23T03:40:45;6.25;;;4.25;;
29688;SDS011;16600;47.444;8.334;2023-03-23T03:45:36;10.77;;;4.55;;
29688;SDS011;16600;47.444;8.334;2023-03-23T03:48:02;36.63;;;4.57;;
29688;SDS011;16600;47.444;8.334;2023-03-23T03:50:29;7.50;;;4.35;;
29688;SDS011;16600;47.444;8.334;2023-03-23T03:52:56;6.82;;;4.15;;
29688;SDS011;16600;47.444;8.334;2023-03-23T03:55:23;4.95;;;3.83;;
29688;SDS011;16600;47.444;8.334;2023-03-23T03:57:50;5.07;;;3.95;;
29688;SDS011;16600;47.444;8.334;2023-03-23T04:00:31;4.85;;;3.58;;
29688;SDS011;16600;47.444;8.334;2023-03-23T04:03:01;8.88;;;3.67;;
29688;SDS011;16600;47.444;8.334;2023-03-23T04:05:41;3.25;;;2.75;;
29688;SDS011;16600;47.444;8.334;2023-03-23T04:08:07;5.15;;;3.28;;
29688;SDS011;16600;47.444;8.334;2023-03-23T04:10:33;3.45;;;2.90;;
29688;SDS011;16600;47.444;8.334;2023-03-23T04:13:00;4.13;;;3.33;;
29688;SDS011;16600;47.444;8.334;2023-03-23T04:15:58;4.88;;;3.10;;
29688;SDS011;16600;47.444;8.334;2023-03-23T04:18:31;2.67;;;2.33;;
29688;SDS011;16600;47.444;8.334;2023-03-23T04:21:01;5.40;;;2.40;;
29688;SDS011;16600;47.444;8.334;2023-03-23T04:23:28;6.82;;;3.10;;
29688;SDS011;16600;47.444;8.334;2023-03-23T04:25:59;4.75;;;3.20;;
29688;SDS011;16600;47.444;8.334;2023-03-23T04:28:35;4.57;;;3.80;;
29688;SDS011;16600;47.444;8.334;2023-03-23T04:31:33;4.85;;;2.33;;
29688;SDS011;16600;47.444;8.334;2023-03-23T04:34:12;4.90;;;2.47;;
29688;SDS011;16600;47.444;8.334;2023-03-23T04:36:46;3.00;;;2.22;;
29688;SDS011;16600;47.444;8.334;2023-03-23T04:39:17;1.88;;;1.55;;
29688;SDS011;16600;47.444;8.334;2023-03-23T04:41:44;5.55;;;1.77;;
29688;SDS011;16600;47.444;8.334;2023-03-23T04:44:40;2.80;;;1.70;;
29688;SDS011;16600;47.444;8.334;2023-03-23T04:47:13;2.13;;;1.70;;
29688;SDS011;16600;47.444;8.334;2023-03-23T04:49:53;2.40;;;1.60;;
29688;SDS011;16600;47.444;8.334;2023-03-23T04:52:26;4.47;;;1.63;;
29688;SDS011;16600;47.444;8.334;2023-03-23T04:54:56;1.95;;;1.75;;
29688;SDS011;16600;47.444;8.334;2023-03-23T04:57:26;2.50;;;1.85;;
29688;SDS011;16600;47.444;8.334;2023-03-23T05:03:01;1.40;;;1.30;;
29688;SDS011;16600;47.444;8.334;2023-03-23T05:05:29;1.58;;;1.48;;
29688;SDS011;16600;47.444;8.334;2023-03-23T05:07:58;3.90;;;2.17;;
29688;SDS011;16600;47.444;8.334;2023-03-23T05:10:27;4.22;;;1.60;;
29688;SDS011;16600;47.444;8.334;2023-03-23T05:12:59;1.88;;;1.67;;
29688;SDS011;16600;47.444;8.334;2023-03-23T05:17:51;1.92;;;1.55;;
29688;SDS011;16600;47.444;8.334;2023-03-23T05:20:19;4.80;;;1.92;;
29688;SDS011;16600;47.444;8.334;2023-03-23T05:22:48;2.00;;;1.58;;
29688;SDS011;16600;47.444;8.334;2023-03-23T05:25:18;2.67;;;1.70;;
29688;SDS011;16600;47.444;8.334;2023-03-23T05:27:50;2.05;;;1.70;;
29688;SDS011;16600;47.444;8.334;2023-03-23T05:30:46;5.68;;;2.05;;
29688;SDS011;16600;47.444;8.334;2023-03-23T05:33:15;2.38;;;1.85;;
29688;SDS011;16600;47.444;8.334;2023-03-23T05:35:59;2.00;;;1.58;;
29688;SDS011;16600;47.444;8.334;2023-03-23T05:38:32;2.35;;;1.85;;
29688;SDS011;16600;47.444;8.334;2023-03-23T05:40:59;1.75;;;1.60;;
29688;SDS011;16600;47.444;8.334;2023-03-23T05:43:32;1.95;;;1.75;;
29688;SDS011;16600;47.444;8.334;2023-03-23T05:46:15;3.38;;;2.20;;
29688;SDS011;16600;47.444;8.334;2023-03-23T05:48:42;1.58;;;1.45;;
29688;SDS011;16600;47.444;8.334;2023-03-23T05:51:13;4.82;;;1.77;;
29688;SDS011;16600;47.444;8.334;2023-03-23T05:53:42;3.08;;;1.63;;
29688;SDS011;16600;47.444;8.334;2023-03-23T05:56:10;2.65;;;2.10;;
29688;SDS011;16600;47.444;8.334;2023-03-23T05:58:57;3.10;;;2.33;;
29688;SDS011;16600;47.444;8.334;2023-03-23T06:01:25;3.67;;;2.05;;
29688;SDS011;16600;47.444;8.334;2023-03-23T06:03:56;2.80;;;1.80;;
29688;SDS011;16600;47.444;8.334;2023-03-23T06:06:29;3.03;;;1.77;;
29688;SDS011;16600;47.444;8.334;2023-03-23T06:09:06;2.20;;;1.80;;
29688;SDS011;16600;47.444;8.334;2023-03-23T06:14:33;2.78;;;1.92;;
29688;SDS011;16600;47.444;8.334;2023-03-23T06:16:59;2.35;;;1.98;;
29688;SDS011;16600;47.444;8.334;2023-03-23T06:22:06;2.42;;;1.70;;
29688;SDS011;16600;47.444;8.334;2023-03-23T06:24:54;1.80;;;1.70;;
29688;SDS011;16600;47.444;8.334;2023-03-23T06:27:28;3.20;;;2.25;;
29688;SDS011;16600;47.444;8.334;2023-03-23T06:32:20;2.17;;;1.60;;
29688;SDS011;16600;47.444;8.334;2023-03-23T06:34:48;2.13;;;1.90;;
29688;SDS011;16600;47.444;8.334;2023-03-23T06:37:35;10.32;;;2.50;;
29688;SDS011;16600;47.444;8.334;2023-03-23T06:40:07;2.53;;;1.60;;
29688;SDS011;16600;47.444;8.334;2023-03-23T06:42:38;4.85;;;1.70;;
29688;SDS011;16600;47.444;8.334;2023-03-23T06:45:23;2.70;;;1.90;;
29688;SDS011;16600;47.444;8.334;2023-03-23T06:48:03;4.90;;;2.03;;
29688;SDS011;16600;47.444;8.334;2023-03-23T06:50:33;1.80;;;1.70;;
29688;SDS011;16600;47.444;8.334;2023-03-23T06:53:01;5.30;;;2.05;;
29688;SDS011;16600;47.444;8.334;2023-03-23T06:55:27;2.00;;;1.80;;
29688;SDS011;16600;47.444;8.334;2023-03-23T06:57:53;2.15;;;1.85;;
29688;SDS011;16600;47.444;8.334;2023-03-23T07:02:44;3.10;;;1.90;;
29688;SDS011;16600;47.444;8.334;2023-03-23T07:05:12;4.25;;;3.35;;
29688;SDS011;16600;47.444;8.334;2023-03-23T07:07:39;2.35;;;1.83;;
29688;SDS011;16600;47.444;8.334;2023-03-23T07:10:14;4.88;;;3.45;;
29688;SDS011;16600;47.444;8.334;2023-03-23T07:12:41;3.45;;;1.88;;
29688;SDS011;16600;47.444;8.334;2023-03-23T07:15:09;1.90;;;1.70;;
29688;SDS011;16600;47.444;8.334;2023-03-23T07:17:39;3.38;;;2.17;;
29688;SDS011;16600;47.444;8.334;2023-03-23T07:20:17;3.05;;;1.88;;
29688;SDS011;16600;47.444;8.334;2023-03-23T07:25:19;3.47;;;1.70;;
29688;SDS011;16600;47.444;8.334;2023-03-23T07:27:51;5.30;;;1.63;;
29688;SDS011;16600;47.444;8.334;2023-03-23T07:30:17;4.82;;;2.28;;
29688;SDS011;16600;47.444;8.334;2023-03-23T07:32:43;4.50;;;1.65;;
29688;SDS011;16600;47.444;8.334;2023-03-23T07:35:09;3.58;;;2.20;;
29688;SDS011;16600;47.444;8.334;2023-03-23T07:37:47;2.17;;;1.95;;
29688;SDS011;16600;47.444;8.334;2023-03-23T07:40:15;2.55;;;2.20;;
29688;SDS011;16600;47.444;8.334;2023-03-23T07:42:46;7.03;;;1.83;;
29688;SDS011;16600;47.444;8.334;2023-03-23T07:45:23;1.80;;;1.70;;
29688;SDS011;16600;47.444;8.334;2023-03-23T07:47:49;2.35;;;1.90;;
29688;SDS011;16600;47.444;8.334;2023-03-23T07:50:15;3.40;;;2.10;;
29688;SDS011;16600;47.444;8.334;2023-03-23T07:52:41;2.30;;;1.77;;
29688;SDS011;16600;47.444;8.334;2023-03-23T07:55:08;2.30;;;1.77;;
29688;SDS011;16600;47.444;8.334;2023-03-23T07:57:45;3.10;;;2.08;;
29688;SDS011;16600;47.444;8.334;2023-03-23T08:00:11;6.90;;;2.17;;
29688;SDS011;16600;47.444;8.334;2023-03-23T08:02:41;3.85;;;3.30;;
29688;SDS011;16600;47.444;8.334;2023-03-23T08:05:30;3.03;;;2.20;;
29688;SDS011;16600;47.444;8.334;2023-03-23T08:08:22;1.63;;;1.52;;
29688;SDS011;16600;47.444;8.334;2023-03-23T08:11:07;3.70;;;2.10;;
29688;SDS011;16600;47.444;8.334;2023-03-23T08:13:42;2.03;;;1.60;;
29688;SDS011;16600;47.444;8.334;2023-03-23T08:16:38;2.67;;;1.92;;
29688;SDS011;16600;47.444;8.334;2023-03-23T08:19:27;3.78;;;2.20;;
29688;SDS011;16600;47.444;8.334;2023-03-23T08:22:16;6.18;;;2.42;;
29688;SDS011;16600;47.444;8.334;2023-03-23T08:25:02;4.45;;;2.65;;
29688;SDS011;16600;47.444;8.334;2023-03-23T08:27:48;2.95;;;2.20;;
29688;SDS011;16600;47.444;8.334;2023-03-23T08:30:23;2.38;;;2.17;;
29688;SDS011;16600;47.444;8.334;2023-03-23T08:33:00;3.72;;;2.38;;
29688;SDS011;16600;47.444;8.334;2023-03-23T08:35:44;3.47;;;2.10;;
29688;SDS011;16600;47.444;8.334;2023-03-23T08:38:31;9.82;;;2.53;;
29688;SDS011;16600;47.444;8.334;2023-03-23T08:41:18;3.83;;;2.75;;
29688;SDS011;16600;47.444;8.334;2023-03-23T08:44:17;3.40;;;2.58;;
29688;SDS011;16600;47.444;8.334;2023-03-23T08:47:02;3.58;;;2.33;;
29688;SDS011;16600;47.444;8.334;2023-03-23T08:49:48;2.47;;;2.10;;
29688;SDS011;16600;47.444;8.334;2023-03-23T08:52:36;4.22;;;2.00;;
29688;SDS011;16600;47.444;8.334;2023-03-23T08:55:35;4.40;;;2.55;;
29688;SDS011;16600;47.444;8.334;2023-03-23T08:58:19;2.25;;;1.85;;
29688;SDS011;16600;47.444;8.334;2023-03-23T09:01:04;3.58;;;3.28;;
29688;SDS011;16600;47.444;8.334;2023-03-23T09:03:41;2.20;;;2.00;;
29688;SDS011;16600;47.444;8.334;2023-03-23T09:06:29;3.35;;;2.00;;
29688;SDS011;16600;47.444;8.334;2023-03-23T09:08:54;3.35;;;2.40;;
29688;SDS011;16600;47.444;8.334;2023-03-23T09:11:26;7.00;;;2.40;;
29688;SDS011;16600;47.444;8.334;2023-03-23T09:13:52;3.45;;;1.95;;
29688;SDS011;16600;47.444;8.334;2023-03-23T09:16:18;2.28;;;1.70;;
29688;SDS011;16600;47.444;8.334;2023-03-23T09:18:44;3.35;;;2.17;;
29688;SDS011;16600;47.444;8.334;2023-03-23T09:21:11;2.45;;;2.03;;
29688;SDS011;16600;47.444;8.334;2023-03-23T09:23:38;3.55;;;2.40;;
29688;SDS011;16600;47.444;8.334;2023-03-23T09:26:04;3.53;;;1.98;;
29688;SDS011;16600;47.444;8.334;2023-03-23T09:28:30;2.47;;;2.13;;
29688;SDS011;16600;47.444;8.334;2023-03-23T09:30:56;3.45;;;2.33;;
29688;SDS011;16600;47.444;8.334;2023-03-23T09:33:25;1.83;;;1.73;;
29688;SDS011;16600;47.444;8.334;2023-03-23T09:35:52;6.63;;;2.58;;
29688;SDS011;16600;47.444;8.334;2023-03-23T09:38:18;2.60;;;2.17;;
29688;SDS011;16600;47.444;8.334;2023-03-23T09:40:48;2.53;;;2.20;;
29688;SDS011;16600;47.444;8.334;2023-03-23T09:45:47;4.78;;;2.20;;
29688;SDS011;16600;47.444;8.334;2023-03-23T09:51:02;3.63;;;2.33;;
29688;SDS011;16600;47.444;8.334;2023-03-23T09:53:40;2.65;;;2.15;;
29688;SDS011;16600;47.444;8.334;2023-03-23T09:56:12;3.90;;;2.55;;
29688;SDS011;16600;47.444;8.334;2023-03-23T09:58:44;2.17;;;1.98;;
29688;SDS011;16600;47.444;8.334;2023-03-23T10:01:14;3.70;;;2.38;;
29688;SDS011;16600;47.444;8.334;2023-03-23T10:03:43;2.55;;;1.75;;
29688;SDS011;16600;47.444;8.334;2023-03-23T10:06:10;4.78;;;2.25;;
29688;SDS011;16600;47.444;8.334;2023-03-23T10:08:43;8.82;;;2.65;;
29688;SDS011;16600;47.444;8.334;2023-03-23T10:14:03;7.97;;;1.83;;
29688;SDS011;16600;47.444;8.334;2023-03-23T10:16:40;8.10;;;2.33;;
29688;SDS011;16600;47.444;8.334;2023-03-23T10:19:10;2.22;;;2.03;;
29688;SDS011;16600;47.444;8.334;2023-03-23T10:21:43;2.30;;;1.88;;
29688;SDS011;16600;47.444;8.334;2023-03-23T10:24:11;2.25;;;1.98;;
29688;SDS011;16600;47.444;8.334;2023-03-23T10:26:53;2.20;;;1.98;;
29688;SDS011;16600;47.444;8.334;2023-03-23T10:29:24;3.70;;;2.20;;
29688;SDS011;16600;47.444;8.334;2023-03-23T10:39:40;3.20;;;2.38;;
29688;SDS011;16600;47.444;8.334;2023-03-23T10:42:09;11.45;;;2.22;;
29688;SDS011;16600;47.444;8.334;2023-03-23T10:44:35;2.65;;;2.22;;
29688;SDS011;16600;47.444;8.334;2023-03-23T10:47:05;3.40;;;1.70;;
29688;SDS011;16600;47.444;8.334;2023-03-23T10:49:33;4.93;;;3.97;;
29688;SDS011;16600;47.444;8.334;2023-03-23T10:52:07;3.10;;;2.30;;
29688;SDS011;16600;47.444;8.334;2023-03-23T10:54:37;2.15;;;1.95;;
29688;SDS011;16600;47.444;8.334;2023-03-23T10:57:26;1.77;;;1.65;;
29688;SDS011;16600;47.444;8.334;2023-03-23T11:03:07;3.55;;;1.67;;
29688;SDS011;16600;47.444;8.334;2023-03-23T11:08:16;3.35;;;1.85;;
29688;SDS011;16600;47.444;8.334;2023-03-23T11:13:14;4.28;;;2.00;;
29688;SDS011;16600;47.444;8.334;2023-03-23T11:15:41;3.15;;;2.47;;
29688;SDS011;16600;47.444;8.334;2023-03-23T11:18:12;2.00;;;1.80;;
29688;SDS011;16600;47.444;8.334;2023-03-23T11:20:42;3.40;;;1.90;;
29688;SDS011;16600;47.444;8.334;2023-03-23T11:23:10;5.30;;;2.40;;
29688;SDS011;16600;47.444;8.334;2023-03-23T11:25:54;1.98;;;1.70;;
29688;SDS011;16600;47.444;8.334;2023-03-23T11:28:22;2.08;;;1.85;;
29688;SDS011;16600;47.444;8.334;2023-03-23T11:30:52;2.28;;;1.52;;
29688;SDS011;16600;47.444;8.334;2023-03-23T11:33:22;3.45;;;2.10;;
29688;SDS011;16600;47.444;8.334;2023-03-23T11:35:54;3.13;;;2.13;;
29688;SDS011;16600;47.444;8.334;2023-03-23T11:38:22;3.58;;;1.63;;
29688;SDS011;16600;47.444;8.334;2023-03-23T11:40:53;5.38;;;2.00;;
29688;SDS011;16600;47.444;8.334;2023-03-23T11:43:20;1.88;;;1.67;;
29688;SDS011;16600;47.444;8.334;2023-03-23T11:45:50;13.30;;;2.30;;
29688;SDS011;16600;47.444;8.334;2023-03-23T11:48:19;3.30;;;2.00;;
29688;SDS011;16600;47.444;8.334;2023-03-23T11:50:50;1.50;;;1.40;;
29688;SDS011;16600;47.444;8.334;2023-03-23T11:56:09;3.63;;;1.90;;
29688;SDS011;16600;47.444;8.334;2023-03-23T11:58:37;4.45;;;2.00;;
29688;SDS011;16600;47.444;8.334;2023-03-23T12:06:03;2.42;;;1.83;;
29688;SDS011;16600;47.444;8.334;2023-03-23T12:13:53;3.05;;;1.83;;
29688;SDS011;16600;47.444;8.334;2023-03-23T12:16:25;3.25;;;2.00;;
29688;SDS011;16600;47.444;8.334;2023-03-23T12:44:52;2.97;;;1.63;;
29688;SDS011;16600;47.444;8.334;2023-03-23T12:47:36;4.05;;;1.33;;
29688;SDS011;16600;47.444;8.334;2023-03-23T12:50:12;5.00;;;1.77;;
29688;SDS011;16600;47.444;8.334;2023-03-23T12:52:50;1.88;;;1.52;;
29688;SDS011;16600;47.444;8.334;2023-03-23T12:55:31;2.75;;;1.50;;
29688;SDS011;16600;47.444;8.334;2023-03-23T12:58:09;3.70;;;1.83;;
29688;SDS011;16600;47.444;8.334;2023-03-23T13:00:50;1.73;;;1.50;;
29688;SDS011;16600;47.444;8.334;2023-03-23T13:03:27;2.08;;;1.33;;
29688;SDS011;16600;47.444;8.334;2023-03-23T13:06:09;2.70;;;1.50;;
29688;SDS011;16600;47.444;8.334;2023-03-23T13:08:41;2.45;;;1.80;;
29688;SDS011;16600;47.444;8.334;2023-03-23T13:11:10;4.03;;;1.58;;
29688;SDS011;16600;47.444;8.334;2023-03-23T13:13:45;2.75;;;1.58;;
29688;SDS011;16600;47.444;8.334;2023-03-23T13:16:28;4.05;;;2.10;;
29688;SDS011;16600;47.444;8.334;2023-03-23T13:21:32;3.70;;;1.85;;
29688;SDS011;16600;47.444;8.334;2023-03-23T13:24:09;3.22;;;2.22;;
29688;SDS011;16600;47.444;8.334;2023-03-23T13:26:40;2.90;;;2.05;;
29688;SDS011;16600;47.444;8.334;2023-03-23T13:29:10;2.40;;;1.92;;
29688;SDS011;16600;47.444;8.334;2023-03-23T13:31:42;3.63;;;1.80;;
29688;SDS011;16600;47.444;8.334;2023-03-23T13:34:24;2.75;;;1.75;;
29688;SDS011;16600;47.444;8.334;2023-03-23T13:37:10;3.05;;;2.10;;
29688;SDS011;16600;47.444;8.334;2023-03-23T13:39:54;2.30;;;2.10;;
29688;SDS011;16600;47.444;8.334;2023-03-23T13:42:23;6.13;;;2.00;;
29688;SDS011;16600;47.444;8.334;2023-03-23T13:49:58;2.67;;;1.95;;
29688;SDS011;16600;47.444;8.334;2023-03-23T13:53:12;4.35;;;2.13;;
29688;SDS011;16600;47.444;8.334;2023-03-23T14:05:39;2.47;;;1.83;;
29688;SDS011;16600;47.444;8.334;2023-03-23T14:10:35;5.30;;;2.05;;
29688;SDS011;16600;47.444;8.334;2023-03-23T14:13:02;4.20;;;1.92;;
29688;SDS011;16600;47.444;8.334;2023-03-23T14:15:30;3.80;;;1.60;;
29688;SDS011;16600;47.444;8.334;2023-03-23T14:17:56;2.53;;;1.63;;
29688;SDS011;16600;47.444;8.334;2023-03-23T14:20:26;2.53;;;1.80;;
29688;SDS011;16600;47.444;8.334;2023-03-23T14:22:55;2.28;;;1.80;;
29688;SDS011;16600;47.444;8.334;2023-03-23T14:25:22;3.08;;;1.60;;
29688;SDS011;16600;47.444;8.334;2023-03-23T14:27:50;3.13;;;2.15;;
29688;SDS011;16600;47.444;8.334;2023-03-23T14:30:18;2.83;;;1.67;;
29688;SDS011;16600;47.444;8.334;2023-03-23T14:32:45;2.95;;;1.95;;
29688;SDS011;16600;47.444;8.334;2023-03-23T14:37:43;4.50;;;2.13;;
29688;SDS011;16600;47.444;8.334;2023-03-23T14:40:12;2.10;;;1.75;;
29688;SDS011;16600;47.444;8.334;2023-03-23T14:42:40;6.85;;;2.03;;
29688;SDS011;16600;47.444;8.334;2023-03-23T14:45:06;2.58;;;1.85;;
29688;SDS011;16600;47.444;8.334;2023-03-23T14:47:34;2.67;;;1.90;;
29688;SDS011;16600;47.444;8.334;2023-03-23T14:50:02;3.40;;;2.10;;
29688;SDS011;16600;47.444;8.334;2023-03-23T14:52:32;4.90;;;1.60;;
29688;SDS011;16600;47.444;8.334;2023-03-23T14:55:18;3.30;;;1.70;;
29688;SDS011;16600;47.444;8.334;2023-03-23T14:57:48;1.85;;;1.70;;
29688;SDS011;16600;47.444;8.334;2023-03-23T15:00:19;2.70;;;1.98;;
29688;SDS011;16600;47.444;8.334;2023-03-23T15:02:47;5.20;;;1.88;;
29688;SDS011;16600;47.444;8.334;2023-03-23T15:05:26;4.65;;;1.52;;
29688;SDS011;16600;47.444;8.334;2023-03-23T15:07:54;3.00;;;1.60;;
29688;SDS011;16600;47.444;8.334;2023-03-23T15:10:23;4.15;;;2.15;;
29688;SDS011;16600;47.444;8.334;2023-03-23T15:12:50;2.35;;;1.67;;
29688;SDS011;16600;47.444;8.334;2023-03-23T15:15:27;2.60;;;1.95;;
29688;SDS011;16600;47.444;8.334;2023-03-23T15:17:54;1.95;;;1.77;;
29688;SDS011;16600;47.444;8.334;2023-03-23T15:20:22;2.58;;;1.95;;
29688;SDS011;16600;47.444;8.334;2023-03-23T15:22:49;1.80;;;1.65;;
29688;SDS011;16600;47.444;8.334;2023-03-23T15:25:19;3.20;;;1.83;;
29688;SDS011;16600;47.444;8.334;2023-03-23T15:27:52;2.40;;;1.98;;
29688;SDS011;16600;47.444;8.334;2023-03-23T15:32:49;3.53;;;1.65;;
29688;SDS011;16600;47.444;8.334;2023-03-23T15:35:23;3.28;;;2.03;;
29688;SDS011;16600;47.444;8.334;2023-03-23T15:37:54;2.85;;;1.90;;
29688;SDS011;16600;47.444;8.334;2023-03-23T15:40:23;3.35;;;1.95;;
29688;SDS011;16600;47.444;8.334;2023-03-23T15:42:50;1.45;;;1.27;;
29688;SDS011;16600;47.444;8.334;2023-03-23T15:45:31;2.65;;;2.10;;
29688;SDS011;16600;47.444;8.334;2023-03-23T15:47:58;2.85;;;1.90;;
29688;SDS011;16600;47.444;8.334;2023-03-23T15:52:56;2.53;;;1.88;;
29688;SDS011;16600;47.444;8.334;2023-03-23T15:55:24;4.30;;;2.13;;
29688;SDS011;16600;47.444;8.334;2023-03-23T15:57:51;2.72;;;1.77;;
29688;SDS011;16600;47.444;8.334;2023-03-23T16:00:18;10.23;;;2.10;;
29688;SDS011;16600;47.444;8.334;2023-03-23T16:02:49;2.15;;;1.92;;
29688;SDS011;16600;47.444;8.334;2023-03-23T16:05:20;3.05;;;1.67;;
29688;SDS011;16600;47.444;8.334;2023-03-23T16:07:50;2.92;;;1.83;;
29688;SDS011;16600;47.444;8.334;2023-03-23T16:10:17;2.75;;;1.80;;
29688;SDS011;16600;47.444;8.334;2023-03-23T16:12:49;3.30;;;2.05;;
29688;SDS011;16600;47.444;8.334;2023-03-23T16:15:15;3.60;;;2.00;;
29688;SDS011;16600;47.444;8.334;2023-03-23T16:17:41;2.30;;;1.80;;
29688;SDS011;16600;47.444;8.334;2023-03-23T16:20:18;4.35;;;2.05;;
29688;SDS011;16600;47.444;8.334;2023-03-23T16:22:44;3.67;;;2.08;;
29688;SDS011;16600;47.444;8.334;2023-03-23T16:25:11;3.72;;;2.20;;
29688;SDS011;16600;47.444;8.334;2023-03-23T16:27:38;14.27;;;10.60;;
29688;SDS011;16600;47.444;8.334;2023-03-23T16:32:50;3.08;;;1.70;;
29688;SDS011;16600;47.444;8.334;2023-03-23T16:35:22;6.45;;;2.40;;
29688;SDS011;16600;47.444;8.334;2023-03-23T16:37:53;3.42;;;2.22;;
29688;SDS011;16600;47.444;8.334;2023-03-23T16:40:20;4.50;;;1.83;;
29688;SDS011;16600;47.444;8.334;2023-03-23T16:42:47;4.75;;;1.80;;
29688;SDS011;16600;47.444;8.334;2023-03-23T16:45:14;12.32;;;2.20;;
29688;SDS011;16600;47.444;8.334;2023-03-23T16:47:40;5.20;;;2.10;;
29688;SDS011;16600;47.444;8.334;2023-03-23T16:50:07;6.03;;;1.98;;
29688;SDS011;16600;47.444;8.334;2023-03-23T16:52:36;9.70;;;1.95;;
29688;SDS011;16600;47.444;8.334;2023-03-23T16:55:03;2.38;;;1.80;;
29688;SDS011;16600;47.444;8.334;2023-03-23T16:57:32;7.32;;;1.80;;
29688;SDS011;16600;47.444;8.334;2023-03-23T16:59:59;6.97;;;2.28;;
29688;SDS011;16600;47.444;8.334;2023-03-23T17:03:01;4.83;;;2.10;;
29688;SDS011;16600;47.444;8.334;2023-03-23T17:07:53;6.82;;;1.95;;
29688;SDS011;16600;47.444;8.334;2023-03-23T17:10:25;2.85;;;1.92;;
29688;SDS011;16600;47.444;8.334;2023-03-23T17:12:55;4.28;;;1.98;;
29688;SDS011;16600;47.444;8.334;2023-03-23T17:15:21;1.88;;;1.67;;
29688;SDS011;16600;47.444;8.334;2023-03-23T17:17:50;2.13;;;1.70;;
29688;SDS011;16600;47.444;8.334;2023-03-23T17:20:17;2.92;;;1.63;;
29688;SDS011;16600;47.444;8.334;2023-03-23T17:22:43;2.03;;;1.60;;
29688;SDS011;16600;47.444;8.334;2023-03-23T17:25:09;3.25;;;1.95;;
29688;SDS011;16600;47.444;8.334;2023-03-23T17:27:36;3.38;;;1.50;;
29688;SDS011;16600;47.444;8.334;2023-03-23T17:30:03;1.42;;;1.33;;
29688;SDS011;16600;47.444;8.334;2023-03-23T17:32:29;3.15;;;1.88;;
29688;SDS011;16600;47.444;8.334;2023-03-23T17:34:56;6.78;;;2.10;;
29688;SDS011;16600;47.444;8.334;2023-03-23T17:37:22;2.80;;;1.92;;
29688;SDS011;16600;47.444;8.334;2023-03-23T17:39:48;1.95;;;1.70;;
29688;SDS011;16600;47.444;8.334;2023-03-23T17:42:14;2.83;;;1.98;;
29688;SDS011;16600;47.444;8.334;2023-03-23T17:44:40;2.78;;;1.80;;
29688;SDS011;16600;47.444;8.334;2023-03-23T17:47:06;4.45;;;1.77;;
29688;SDS011;16600;47.444;8.334;2023-03-23T17:49:33;3.33;;;1.67;;
29688;SDS011;16600;47.444;8.334;2023-03-23T17:51:59;4.63;;;2.10;;
29688;SDS011;16600;47.444;8.334;2023-03-23T17:56:52;3.35;;;2.17;;
29688;SDS011;16600;47.444;8.334;2023-03-23T17:59:19;3.38;;;2.40;;